Time;durP1;ratioP1;P1;durP2;ratioP2;P2;SDS_P1;SDS_P2;PMS_P1;PMS_P2;Temp;Humidity;BMP_temperature;BMP_pressure;BME280_temperature;BME280_humidity;BME280_pressure;Samples;Min_cycle;Max_cycle;Signal;HPM_P1;HPM_P2
2023/07/28 00:02:07;;;;;;;18.85;13.88;;;18.90;99.90;;;;;;5038999;28;20021;-91
2023/07/28 00:04:36;;;;;;;18.92;14.10;;;18.90;99.90;;;;;;5055603;28;20062;-93
2023/07/28 00:07:03;;;;;;;21.55;15.50;;;18.90;99.90;;;;;;5039289;28;20033;-93
2023/07/28 00:09:29;;;;;;;18.35;14.73;;;18.90;99.90;;;;;;5039253;28;20025;-91
2023/07/28 00:12:00;;;;;;;20.52;15.00;;;18.90;99.90;;;;;;5038740;28;20036;-92
2023/07/28 00:14:26;;;;;;;;;;;18.90;99.90;;;;;;5057124;28;20070;-92
2023/07/28 00:16:53;;;;;;;23.23;15.18;;;18.90;99.90;;;;;;5038964;28;20362;-91
2023/07/28 00:19:20;;;;;;;21.83;14.90;;;18.90;99.90;;;;;;5038824;28;20028;-91
2023/07/28 00:21:49;;;;;;;22.23;15.02;;;18.90;99.90;;;;;;5038906;28;20028;-90
2023/07/28 00:24:15;;;;;;;18.80;14.00;;;18.80;99.90;;;;;;5038692;28;20060;-90
2023/07/28 00:26:42;;;;;;;17.73;13.95;;;18.90;99.90;;;;;;5038763;28;20016;-89
2023/07/28 00:29:08;;;;;;;19.73;14.43;;;18.90;99.90;;;;;;5038278;28;20544;-90
2023/07/28 00:31:34;;;;;;;18.23;14.23;;;18.90;99.90;;;;;;5056507;28;20024;-90
2023/07/28 00:34:01;;;;;;;19.73;14.55;;;18.90;99.90;;;;;;5038723;28;20025;-90
2023/07/28 00:36:27;;;;;;;19.52;13.80;;;18.90;99.90;;;;;;5038216;28;20052;-90
2023/07/28 00:38:52;;;;;;;17.92;14.20;;;18.90;99.90;;;;;;5038296;28;20029;-90
2023/07/28 00:41:18;;;;;;;18.75;14.30;;;18.90;99.90;;;;;;5038217;28;20021;-90
2023/07/28 00:43:44;;;;;;;22.80;15.98;;;18.90;99.90;;;;;;5056776;28;20009;-91
2023/07/28 00:46:13;;;;;;;18.13;13.98;;;18.90;99.90;;;;;;5057115;28;20021;-91
2023/07/28 00:48:40;;;;;;;19.63;14.88;;;19.00;99.90;;;;;;5056302;28;20093;-92
2023/07/28 00:51:07;;;;;;;20.42;16.00;;;19.00;99.90;;;;;;5072885;28;20040;-91
2023/07/28 00:53:33;;;;;;;21.15;16.75;;;19.00;99.90;;;;;;5076943;28;20005;-91
2023/07/28 00:55:59;;;;;;;23.55;16.02;;;19.00;99.90;;;;;;5077659;28;20032;-91
2023/07/28 00:58:24;;;;;;;21.58;15.25;;;19.00;99.90;;;;;;5063820;28;20119;-91
2023/07/28 01:00:50;;;;;;;25.42;16.05;;;18.90;99.90;;;;;;5057802;28;20469;-91
2023/07/28 01:03:18;;;;;;;23.00;15.52;;;18.90;99.90;;;;;;5057625;28;20044;-92
2023/07/28 01:05:50;;;;;;;19.77;15.50;;;18.90;99.90;;;;;;5057851;28;20017;-92
2023/07/28 01:08:30;;;;;;;22.83;15.90;;;18.90;99.90;;;;;;5057869;28;20060;-92
2023/07/28 01:10:55;;;;;;;23.77;15.98;;;18.90;99.90;;;;;;5057973;28;20021;-91
2023/07/28 01:13:21;;;;;;;23.08;16.05;;;18.90;99.90;;;;;;5057643;28;20082;-93
2023/07/28 01:15:47;;;;;;;22.25;16.92;;;19.00;99.90;;;;;;5067890;28;20032;-92
2023/07/28 01:18:15;;;;;;;24.17;16.95;;;18.90;99.90;;;;;;5079907;28;20028;-91
2023/07/28 01:20:42;;;;;;;24.13;15.55;;;19.00;99.90;;;;;;5079804;28;20012;-91
2023/07/28 01:23:20;;;;;;;25.92;16.00;;;19.00;99.90;;;;;;5076459;28;20029;-90
2023/07/28 01:26:13;;;;;;;24.73;16.98;;;19.00;99.90;;;;;;5057525;28;20036;-89
2023/07/28 01:28:41;;;;;;;22.95;16.13;;;19.00;99.90;;;;;;5062624;28;20025;-89
2023/07/28 01:31:13;;;;;;;27.63;16.80;;;19.00;99.90;;;;;;5062447;28;20493;-90
2023/07/28 01:33:38;;;;;;;26.67;17.10;;;19.00;99.90;;;;;;5075405;28;20025;-89
2023/07/28 01:36:04;;;;;;;24.48;16.77;;;19.00;99.90;;;;;;5057591;28;20461;-89
2023/07/28 01:38:30;;;;;;;25.70;17.33;;;18.90;99.90;;;;;;5056909;28;20390;-90
2023/07/28 01:40:56;;;;;;;23.35;16.20;;;19.00;99.90;;;;;;5056947;28;20354;-90
2023/07/28 01:43:21;;;;;;;25.00;16.48;;;19.00;99.90;;;;;;5057361;28;20472;-89
2023/07/28 01:45:47;;;;;;;26.85;17.15;;;19.00;99.90;;;;;;5056419;28;20025;-89
2023/07/28 01:48:13;;;;;;;26.38;17.05;;;19.00;99.90;;;;;;5056809;28;20029;-90
2023/07/28 01:50:39;;;;;;;24.02;16.05;;;19.00;99.90;;;;;;5056876;28;20027;-90
2023/07/28 01:53:05;;;;;;;25.88;16.70;;;18.90;99.90;;;;;;5057211;28;20115;-91
2023/07/28 01:55:32;;;;;;;28.10;16.13;;;18.90;99.90;;;;;;5057635;28;20074;-91
2023/07/28 01:57:59;;;;;;;28.45;17.30;;;19.00;99.90;;;;;;5057458;28;20029;-91
2023/07/28 02:00:25;;;;;;;28.23;16.83;;;18.90;99.90;;;;;;5057626;28;20025;-92
2023/07/28 02:02:52;;;;;;;27.50;16.15;;;18.90;99.90;;;;;;5045329;28;20065;-91
2023/07/28 02:05:19;;;;;;;29.55;17.20;;;19.00;99.90;;;;;;5019664;28;20032;-91
2023/07/28 02:07:44;;;;;;;28.67;17.38;;;18.90;99.90;;;;;;5029643;28;20021;-89
2023/07/28 02:10:10;;;;;;;27.77;16.98;;;18.90;99.90;;;;;;5018457;28;20029;-90
2023/07/28 02:12:37;;;;;;;31.00;17.42;;;18.90;99.90;;;;;;5017652;28;20063;-90
2023/07/28 02:15:03;;;;;;;31.17;17.63;;;19.00;99.90;;;;;;5017549;28;20112;-90
2023/07/28 02:17:29;;;;;;;35.40;18.80;;;18.90;99.90;;;;;;5017580;28;20030;-90
2023/07/28 02:19:55;;;;;;;34.50;18.08;;;18.90;99.90;;;;;;5017696;28;20018;-91
2023/07/28 02:22:20;;;;;;;33.65;17.77;;;18.90;99.90;;;;;;5017312;28;20026;-92
2023/07/28 02:24:46;;;;;;;38.35;19.33;;;19.00;99.90;;;;;;5017251;28;20394;-90
2023/07/28 02:27:12;;;;;;;34.05;20.10;;;19.00;99.90;;;;;;5017031;28;20367;-90
2023/07/28 02:29:37;;;;;;;34.83;19.30;;;19.00;99.90;;;;;;5033450;28;20025;-90
2023/07/28 02:32:03;;;;;;;44.53;22.08;;;19.00;99.90;;;;;;5016946;28;20033;-91
2023/07/28 02:34:29;;;;;;;40.05;21.08;;;19.00;99.90;;;;;;5017593;28;20034;-90
2023/07/28 02:36:55;;;;;;;41.38;21.40;;;19.00;99.90;;;;;;5017467;28;20117;-91
2023/07/28 02:39:21;;;;;;;43.15;22.13;;;19.00;99.90;;;;;;5033855;28;20018;-89
2023/07/28 02:41:47;;;;;;;42.65;20.73;;;19.00;99.90;;;;;;5017604;28;20030;-89
2023/07/28 02:44:12;;;;;;;40.33;20.08;;;19.00;99.90;;;;;;5016864;28;20087;-89
2023/07/28 02:46:38;;;;;;;39.72;21.88;;;19.00;99.90;;;;;;5016952;28;20033;-90
2023/07/28 02:49:03;;;;;;;44.65;21.05;;;19.00;99.90;;;;;;5033423;28;20037;-90
2023/07/28 02:51:30;;;;;;;42.65;21.35;;;19.00;99.90;;;;;;5033354;28;20037;-90
2023/07/28 02:53:56;;;;;;;39.00;20.70;;;19.00;99.90;;;;;;5016776;28;20026;-90
2023/07/28 02:56:21;;;;;;;41.47;21.00;;;19.00;99.90;;;;;;5016750;28;20029;-91
2023/07/28 02:58:48;;;;;;;45.65;21.67;;;19.00;99.90;;;;;;5020443;28;20108;-91
2023/07/28 03:01:14;;;;;;;42.22;19.85;;;19.00;99.90;;;;;;5036898;28;20056;-91
2023/07/28 03:03:40;;;;;;;41.38;20.70;;;19.00;99.90;;;;;;5023030;28;20084;-91
2023/07/28 03:06:06;;;;;;;38.85;21.02;;;19.00;99.90;;;;;;5039415;28;20083;-91
2023/07/28 03:08:31;;;;;;;42.05;20.83;;;19.00;99.90;;;;;;5039857;28;20093;-93
2023/07/28 03:10:58;;;;;;;42.28;21.33;;;19.00;99.90;;;;;;5039376;28;20144;-93
2023/07/28 03:13:24;;;;;;;45.72;20.60;;;19.00;99.90;;;;;;5040590;28;20029;-92
2023/07/28 03:15:50;;;;;;;41.53;20.65;;;19.00;99.90;;;;;;5020355;28;20021;-91
2023/07/28 03:18:15;;;;;;;42.30;19.85;;;19.00;99.90;;;;;;5036717;28;20017;-90
2023/07/28 03:20:41;;;;;;;39.78;20.70;;;19.00;99.90;;;;;;5020536;28;20399;-91
2023/07/28 03:23:07;;;;;;;44.28;21.40;;;19.00;99.90;;;;;;5020039;28;20391;-92
2023/07/28 03:25:32;;;;;;;44.08;22.00;;;19.00;99.90;;;;;;5036606;28;20078;-92
2023/07/28 03:27:58;;;;;;;44.10;20.45;;;19.00;99.90;;;;;;5020335;28;20029;-92
2023/07/28 03:30:24;;;;;;;48.65;21.10;;;19.00;99.90;;;;;;5019845;28;20033;-91
2023/07/28 03:32:49;;;;;;;41.83;21.15;;;19.00;99.90;;;;;;5019956;28;20029;-92
2023/07/28 03:35:15;;;;;;;59.20;23.48;;;19.00;99.90;;;;;;5020211;28;20482;-91
2023/07/28 03:37:41;;;;;;;45.47;21.67;;;19.00;99.90;;;;;;5020184;28;20544;-91
2023/07/28 03:40:07;;;;;;;55.42;24.08;;;19.10;99.90;;;;;;5019725;28;20022;-92
2023/07/28 03:42:33;;;;;;;50.08;23.33;;;19.00;99.90;;;;;;5035997;28;20108;-92
2023/07/28 03:44:59;;;;;;;51.83;23.23;;;19.10;99.90;;;;;;5019840;28;20022;-93
2023/07/28 03:47:25;;;;;;;56.65;24.73;;;19.00;99.90;;;;;;5018346;28;20036;-92
2023/07/28 03:49:51;;;;;;;53.95;23.25;;;19.10;99.90;;;;;;5018646;28;20061;-93
2023/07/28 03:52:17;;;;;;;58.22;24.67;;;19.00;99.90;;;;;;5000606;28;20030;-93
2023/07/28 03:54:42;;;;;;;61.13;25.52;;;19.10;99.90;;;;;;5000219;28;20029;-90
2023/07/28 03:57:09;;;;;;;49.03;22.23;;;19.10;99.90;;;;;;4999970;28;20029;-89
2023/07/28 03:59:35;;;;;;;57.50;23.92;;;19.10;99.90;;;;;;5016009;28;20146;-89
2023/07/28 04:02:01;;;;;;;55.85;25.00;;;19.10;99.90;;;;;;5002332;28;20133;-90
2023/07/28 04:04:27;;;;;;;58.28;26.08;;;19.10;99.90;;;;;;5040005;28;20082;-90
2023/07/28 04:06:53;;;;;;;56.47;24.50;;;19.10;99.90;;;;;;5038981;28;20095;-91
2023/07/28 04:09:19;;;;;;;60.30;25.52;;;19.10;99.90;;;;;;5038357;28;20088;-91
2023/07/28 04:11:45;;;;;;;64.95;26.55;;;19.10;99.90;;;;;;5039010;28;20033;-91
2023/07/28 04:14:10;;;;;;;55.00;24.65;;;19.10;99.90;;;;;;5039404;28;20108;-91
2023/07/28 04:16:36;;;;;;;61.33;25.60;;;19.10;99.90;;;;;;5038554;28;20064;-90
2023/07/28 04:19:02;;;;;;;69.10;26.42;;;19.10;99.90;;;;;;5039274;28;20029;-88
2023/07/28 04:21:28;;;;;;;65.38;26.45;;;19.10;99.90;;;;;;5039939;28;20029;-88
2023/07/28 04:23:53;;;;;;;66.78;26.92;;;19.10;99.90;;;;;;5040952;28;20136;-88
2023/07/28 04:26:19;;;;;;;68.22;26.55;;;19.10;99.90;;;;;;5045277;28;20038;-88
2023/07/28 04:28:45;;;;;;;64.53;26.70;;;19.00;99.90;;;;;;5041557;28;20025;-89
2023/07/28 04:31:11;;;;;;;62.53;26.70;;;19.10;99.90;;;;;;5043600;28;20025;-88
2023/07/28 04:33:41;;;;;;;61.28;25.50;;;19.10;99.90;;;;;;5047397;28;20032;-88
2023/07/28 04:36:07;;;;;;;60.10;24.38;;;19.00;99.90;;;;;;5059470;28;20143;-90
2023/07/28 04:38:33;;;;;;;76.22;27.27;;;19.10;99.90;;;;;;5038489;28;20493;-91
2023/07/28 04:41:00;;;;;;;60.08;24.08;;;19.10;99.90;;;;;;5038261;28;20086;-91
2023/07/28 04:43:26;;;;;;;60.65;26.27;;;19.10;99.90;;;;;;5038392;28;20024;-91
2023/07/28 04:45:51;;;;;;;74.82;27.33;;;19.10;99.90;;;;;;5038277;28;20013;-91
2023/07/28 04:48:17;;;;;;;66.55;27.23;;;19.10;99.90;;;;;;5038319;28;20055;-91
2023/07/28 04:50:44;;;;;;;64.22;26.33;;;19.10;99.90;;;;;;5038110;28;20028;-91
2023/07/28 04:53:10;;;;;;;66.00;27.00;;;19.10;99.90;;;;;;5038454;28;20508;-89
2023/07/28 04:55:36;;;;;;;66.35;25.65;;;19.10;99.90;;;;;;5038227;28;20056;-90
2023/07/28 04:58:01;;;;;;;68.40;26.63;;;19.10;99.90;;;;;;5039144;28;20033;-90
2023/07/28 05:00:27;;;;;;;66.60;27.40;;;19.10;99.90;;;;;;5050846;28;20016;-90
2023/07/28 05:02:53;;;;;;;65.35;26.15;;;19.10;99.90;;;;;;5024400;28;20041;-90
2023/07/28 05:05:18;;;;;;;76.43;27.83;;;19.20;99.90;;;;;;5041083;28;20021;-90
2023/07/28 05:07:44;;;;;;;68.25;27.00;;;19.10;99.90;;;;;;5041692;28;20470;-93
2023/07/28 05:10:10;;;;;;;63.80;25.65;;;19.10;99.90;;;;;;5047764;28;20017;-90
2023/07/28 05:12:35;;;;;;;70.55;27.90;;;19.10;99.90;;;;;;5078883;28;20021;-90
2023/07/28 05:15:01;;;;;;;74.28;29.55;;;19.10;99.90;;;;;;5076760;28;20012;-90
2023/07/28 05:17:27;;;;;;;86.00;30.88;;;19.10;99.90;;;;;;5065580;28;20020;-90
2023/07/28 05:19:52;;;;;;;67.47;28.13;;;19.10;99.90;;;;;;5071012;28;20385;-90
2023/07/28 05:22:18;;;;;;;77.20;29.63;;;19.10;99.90;;;;;;5056770;28;20054;-89
2023/07/28 05:24:44;;;;;;;79.18;29.63;;;19.10;99.90;;;;;;5057748;28;20056;-89
2023/07/28 05:27:11;;;;;;;79.28;31.00;;;19.20;99.90;;;;;;5062101;28;20024;-90
2023/07/28 05:29:37;;;;;;;99.15;31.77;;;19.10;99.90;;;;;;5057586;28;20024;-89
2023/07/28 05:32:04;;;;;;;80.82;32.95;;;19.10;99.90;;;;;;5057354;28;20457;-90
2023/07/28 05:34:29;;;;;;;77.35;29.83;;;19.10;99.90;;;;;;5074285;28;20086;-89
2023/07/28 05:36:55;;;;;;;84.40;32.42;;;19.10;99.90;;;;;;5073637;28;20024;-90
2023/07/28 05:39:21;;;;;;;73.85;29.90;;;19.10;99.90;;;;;;5040605;28;20024;-90
2023/07/28 05:41:47;;;;;;;74.25;31.90;;;19.10;99.90;;;;;;5073978;28;20086;-89
2023/07/28 05:44:13;;;;;;;73.70;30.33;;;19.10;99.90;;;;;;5057180;28;20038;-90
2023/07/28 05:46:38;;;;;;;78.50;29.25;;;19.10;99.90;;;;;;5040514;28;20103;-93
2023/07/28 05:49:04;;;;;;;77.43;28.02;;;19.10;99.90;;;;;;5057526;28;20025;-91
2023/07/28 05:51:30;;;;;;;70.38;29.05;;;19.10;99.90;;;;;;5073852;28;20013;-92
2023/07/28 05:53:56;;;;;;;70.20;29.40;;;19.10;99.90;;;;;;5041204;28;20070;-93
2023/07/28 05:56:22;;;;;;;81.80;27.88;;;19.10;99.90;;;;;;5040794;28;20036;-93
2023/07/28 05:58:49;;;;;;;67.03;27.58;;;19.10;99.90;;;;;;5048067;28;20013;-87
2023/07/28 06:01:14;;;;;;;59.92;26.73;;;19.10;99.90;;;;;;5081937;28;20004;-89
2023/07/28 06:03:40;;;;;;;73.05;28.20;;;19.20;99.90;;;;;;5064263;28;20036;-89
2023/07/28 06:06:07;;;;;;;60.38;26.85;;;19.10;99.90;;;;;;5065207;28;20017;-89
2023/07/28 06:08:32;;;;;;;70.10;26.55;;;19.10;99.90;;;;;;5065163;28;20024;-89
2023/07/28 06:10:59;;;;;;;65.13;28.05;;;19.10;99.90;;;;;;5098223;28;20047;-89
2023/07/28 06:13:24;;;;;;;63.88;27.08;;;19.10;99.90;;;;;;5081025;28;20016;-89
2023/07/28 06:16:02;;;;;;;64.30;27.65;;;19.10;99.90;;;;;;5088570;28;20021;-91
2023/07/28 06:18:28;;;;;;;61.47;26.70;;;19.10;99.90;;;;;;5075192;28;20016;-92
2023/07/28 06:21:00;;;;;;;64.18;28.38;;;19.10;99.90;;;;;;5058041;28;20385;-91
2023/07/28 06:23:36;;;;;;;62.72;27.17;;;19.10;99.90;;;;;;5041815;28;20474;-92
2023/07/28 06:26:02;;;;;;;65.68;28.65;;;19.10;99.90;;;;;;5041011;28;20024;-88
2023/07/28 06:28:27;;;;;;;60.20;26.75;;;19.10;99.90;;;;;;5056518;28;20028;-89
2023/07/28 06:30:55;;;;;;;61.42;26.48;;;19.20;99.90;;;;;;5056450;28;20033;-89
2023/07/28 06:33:21;;;;;;;60.92;26.33;;;19.10;99.90;;;;;;5086090;28;20046;-92
2023/07/28 06:35:47;;;;;;;65.80;26.90;;;19.10;99.90;;;;;;5053112;28;20092;-91
2023/07/28 06:38:13;;;;;;;63.20;27.52;;;19.10;99.90;;;;;;5069629;28;20021;-91
2023/07/28 06:40:38;;;;;;;63.70;27.15;;;19.10;99.90;;;;;;5085988;28;20055;-91
2023/07/28 06:43:04;;;;;;;68.55;29.33;;;19.10;99.90;;;;;;5069915;28;20020;-90
2023/07/28 06:45:30;;;;;;;71.80;29.90;;;19.10;99.90;;;;;;5054574;28;20017;-90
2023/07/28 06:47:56;;;;;;;79.72;31.90;;;19.10;99.90;;;;;;5035888;28;20101;-91
2023/07/28 06:50:32;;;;;;;71.78;30.30;;;19.10;99.90;;;;;;5061458;28;20043;-91
2023/07/28 06:52:57;;;;;;;75.15;29.83;;;19.10;99.90;;;;;;5059357;28;20546;-91
2023/07/28 06:55:26;;;;;;;72.13;31.13;;;19.10;99.90;;;;;;5060866;28;20108;-93
2023/07/28 06:57:52;;;;;;;67.50;29.92;;;19.10;99.90;;;;;;5072374;28;20028;-91
2023/07/28 07:00:18;;;;;;;77.95;31.80;;;19.10;99.90;;;;;;5083388;28;20336;-92
2023/07/28 07:02:44;;;;;;;75.78;30.17;;;19.10;99.90;;;;;;5081297;28;20055;-92
2023/07/28 07:05:10;;;;;;;75.93;29.85;;;19.10;99.90;;;;;;5081292;28;20504;-90
2023/07/28 07:07:36;;;;;;;66.32;29.92;;;19.10;99.90;;;;;;5080461;28;20028;-90
2023/07/28 07:10:02;;;;;;;67.10;28.92;;;19.20;99.90;;;;;;5079970;28;20024;-90
2023/07/28 07:12:31;;;;;;;78.80;29.90;;;19.20;99.90;;;;;;5080029;28;20035;-90
2023/07/28 07:14:57;;;;;;;69.75;29.23;;;19.20;99.90;;;;;;5080211;28;20040;-90
2023/07/28 07:17:22;;;;;;;65.57;28.92;;;19.20;99.90;;;;;;5080116;28;20039;-90
2023/07/28 07:19:48;;;;;;;67.20;28.13;;;19.20;99.90;;;;;;5079691;28;20503;-90
2023/07/28 07:22:14;;;;;;;60.53;26.73;;;19.20;99.90;;;;;;5080584;28;20087;-88
2023/07/28 07:24:40;;;;;;;58.90;25.50;;;19.20;99.90;;;;;;5097511;28;20110;-88
2023/07/28 07:27:06;;;;;;;62.72;26.52;;;19.20;99.90;;;;;;5080633;28;20039;-89
2023/07/28 07:29:31;;;;;;;51.30;24.92;;;19.30;99.90;;;;;;5080338;28;20166;-89
2023/07/28 07:31:57;;;;;;;57.10;24.77;;;19.30;99.90;;;;;;5062843;28;20107;-89
2023/07/28 07:34:23;;;;;;;53.38;23.95;;;19.30;99.90;;;;;;5059175;28;20024;-89
2023/07/28 07:36:49;;;;;;;48.33;22.83;;;19.30;99.90;;;;;;5057449;28;20131;-89
2023/07/28 07:39:15;;;;;;;49.78;23.75;;;19.30;99.90;;;;;;5060004;28;20472;-92
2023/07/28 07:41:41;;;;;;;50.70;22.80;;;19.30;99.90;;;;;;5060225;28;20020;-91
2023/07/28 07:44:07;;;;;;;49.88;23.65;;;19.40;99.90;;;;;;5058976;28;20029;-92
2023/07/28 07:46:32;;;;;;;55.42;23.48;;;19.40;99.90;;;;;;5059717;28;20031;-91
2023/07/28 07:48:58;;;;;;;47.35;23.08;;;19.40;99.90;;;;;;5060727;28;20059;-91
2023/07/28 07:51:24;;;;;;;46.42;21.98;;;19.40;99.90;;;;;;5059856;28;20024;-91
2023/07/28 07:53:50;;;;;;;46.92;22.42;;;19.40;99.90;;;;;;5059577;28;20052;-91
2023/07/28 07:56:15;;;;;;;46.58;21.17;;;19.40;99.90;;;;;;5059498;28;20443;-92
2023/07/28 07:58:41;;;;;;;44.08;20.95;;;19.40;99.90;;;;;;5060422;28;20424;-89
2023/07/28 08:01:07;;;;;;;44.78;21.92;;;19.40;99.90;;;;;;5076379;28;20028;-91
2023/07/28 08:03:33;;;;;;;42.45;21.58;;;19.40;99.90;;;;;;5043614;28;20516;-91
2023/07/28 08:05:59;;;;;;;39.25;19.88;;;19.50;99.90;;;;;;5019194;28;20112;-92
2023/07/28 08:08:24;;;;;;;40.72;20.73;;;19.50;99.90;;;;;;5036003;28;20026;-92
2023/07/28 08:10:50;;;;;;;35.42;19.88;;;19.50;99.90;;;;;;5035858;28;20500;-92
2023/07/28 08:13:16;;;;;;;44.05;21.33;;;19.50;99.90;;;;;;5054702;28;20017;-92
2023/07/28 08:15:46;;;;;;;32.90;17.90;;;19.50;99.90;;;;;;5060006;28;20545;-92
2023/07/28 08:18:12;;;;;;;33.58;18.63;;;19.50;99.90;;;;;;5060020;28;20056;-92
2023/07/28 08:20:38;;;;;;;37.08;19.92;;;19.50;99.90;;;;;;5060003;28;20069;-91
2023/07/28 08:23:04;;;;;;;36.92;18.63;;;19.50;99.90;;;;;;5060120;28;20029;-91
2023/07/28 08:25:30;;;;;;;36.42;19.50;;;19.50;99.90;;;;;;5026507;28;20037;-91
2023/07/28 08:27:56;;;;;;;32.53;18.48;;;19.50;99.90;;;;;;5035898;28;20041;-90
2023/07/28 08:30:21;;;;;;;36.70;18.83;;;19.60;99.90;;;;;;5035383;28;20061;-91
2023/07/28 08:32:48;;;;;;;30.38;18.10;;;19.60;99.90;;;;;;5035283;28;20034;-91
2023/07/28 08:35:14;;;;;;;38.70;20.13;;;19.60;99.90;;;;;;5035603;28;20534;-90
2023/07/28 08:37:40;;;;;;;32.60;18.95;;;19.60;99.90;;;;;;5034999;28;20107;-89
2023/07/28 08:40:06;;;;;;;29.98;17.98;;;19.60;99.90;;;;;;5018681;28;20030;-89
2023/07/28 08:42:37;;;;;;;32.53;18.90;;;19.70;99.90;;;;;;5035057;28;20475;-90
2023/07/28 08:45:04;;;;;;;30.45;17.50;;;19.70;99.90;;;;;;5036547;28;20478;-90
2023/07/28 08:47:31;;;;;;;33.78;18.67;;;19.80;99.90;;;;;;5046253;28;20045;-89
2023/07/28 08:49:57;;;;;;;28.80;16.75;;;19.70;99.90;;;;;;5046227;28;20025;-89
2023/07/28 08:52:23;;;;;;;25.13;13.75;;;19.80;99.90;;;;;;5045512;28;20494;-87
2023/07/28 08:54:50;;;;;;;24.20;15.55;;;19.80;99.90;;;;;;5028122;28;20029;-89
2023/07/28 08:57:15;;;;;;;26.60;16.40;;;19.80;99.90;;;;;;5044924;28;20018;-89
2023/07/28 08:59:47;;;;;;;26.42;15.27;;;19.80;99.90;;;;;;5038026;28;20052;-89
2023/07/28 09:02:15;;;;;;;32.78;18.05;;;19.80;99.90;;;;;;5020650;28;20045;-89
2023/07/28 09:04:42;;;;;;;29.15;17.92;;;19.80;99.90;;;;;;5057803;28;20020;-90
2023/07/28 09:07:08;;;;;;;31.17;17.73;;;19.80;99.90;;;;;;5057701;28;20131;-89
2023/07/28 09:09:34;;;;;;;29.83;17.10;;;19.90;99.90;;;;;;5057479;28;20174;-89
2023/07/28 09:12:03;;;;;;;30.15;18.08;;;19.90;99.90;;;;;;5057490;28;20041;-89
2023/07/28 09:14:30;;;;;;;27.67;16.52;;;19.90;99.90;;;;;;5057650;28;20028;-89
2023/07/28 09:16:55;;;;;;;26.15;16.48;;;19.90;99.90;;;;;;5057486;28;20029;-89
2023/07/28 09:19:22;;;;;;;27.23;15.73;;;19.90;99.90;;;;;;5058222;28;20086;-92
2023/07/28 09:22:01;;;;;;;23.63;14.98;;;19.90;99.90;;;;;;5069740;28;20028;-93
2023/07/28 09:24:36;;;;;;;27.58;16.58;;;20.00;99.90;;;;;;5071010;28;20083;-92
2023/07/28 09:27:02;;;;;;;26.42;17.00;;;20.00;99.90;;;;;;5067167;28;20548;-90
2023/07/28 09:29:28;;;;;;;26.75;16.23;;;20.00;99.90;;;;;;5061379;28;20052;-90
2023/07/28 09:32:04;;;;;;;23.52;15.82;;;20.00;99.90;;;;;;5058330;28;20020;-91
2023/07/28 09:34:29;;;;;;;26.80;16.80;;;20.00;99.90;;;;;;5057631;28;20052;-90
2023/07/28 09:37:00;;;;;;;26.77;15.77;;;20.00;99.90;;;;;;5041261;28;20048;-91
2023/07/28 09:39:27;;;;;;;23.70;16.30;;;20.10;99.90;;;;;;5066696;28;20023;-89
2023/07/28 09:41:57;;;;;;;26.13;15.93;;;20.00;99.90;;;;;;5081236;28;20025;-89
2023/07/28 09:44:23;;;;;;;23.47;14.80;;;20.10;99.90;;;;;;5097870;28;20088;-88
2023/07/28 09:46:55;;;;;;;25.05;16.38;;;20.10;99.90;;;;;;5080667;28;20035;-89
2023/07/28 09:49:27;;;;;;;26.73;17.13;;;20.20;99.90;;;;;;5056874;28;20017;-89
2023/07/28 09:51:54;;;;;;;24.23;16.00;;;20.20;99.90;;;;;;5056952;28;20028;-88
2023/07/28 09:54:34;;;;;;;23.33;15.23;;;20.30;99.90;;;;;;5056879;28;20035;-89
2023/07/28 09:56:59;;;;;;;21.65;14.88;;;20.30;99.90;;;;;;5056918;28;20027;-89
2023/07/28 09:59:31;;;;;;;22.33;15.80;;;20.30;99.90;;;;;;5056573;28;20425;-88
2023/07/28 10:02:00;;;;;;;22.58;14.73;;;20.40;99.90;;;;;;5023991;28;20032;-87
2023/07/28 10:04:26;;;;;;;24.05;15.10;;;20.40;99.90;;;;;;5040084;28;20066;-89
2023/07/28 10:06:56;;;;;;;29.73;14.60;;;20.40;99.90;;;;;;5039753;28;20032;-89
2023/07/28 10:09:29;;;;;;;21.67;14.73;;;20.50;99.90;;;;;;5057186;28;20028;-90
2023/07/28 10:11:55;;;;;;;22.40;15.70;;;20.50;99.90;;;;;;5057049;28;20029;-89
2023/07/28 10:14:40;;;;;;;21.13;14.07;;;20.60;99.90;;;;;;5041210;28;20021;-93
2023/07/28 10:17:06;;;;;;;20.67;14.40;;;20.70;99.90;;;;;;5041573;28;20035;-90
2023/07/28 10:19:36;;;;;;;20.17;14.40;;;20.80;99.90;;;;;;5040608;28;20017;-91
2023/07/28 10:22:09;;;;;;;21.67;15.20;;;20.90;99.90;;;;;;5057345;28;20382;-91
2023/07/28 10:24:53;;;;;;;21.90;14.90;;;21.00;99.90;;;;;;5058850;28;20024;-93
2023/07/28 10:27:38;;;;;;;21.48;15.85;;;21.10;99.90;;;;;;5071172;28;20035;-93
2023/07/28 10:30:11;;;;;;;21.83;14.88;;;21.20;99.90;;;;;;5067895;28;20016;-92
2023/07/28 10:32:43;;;;;;;21.27;14.52;;;21.30;99.90;;;;;;5055196;28;20041;-92
2023/07/28 10:35:31;;;;;;;19.52;14.55;;;21.40;99.90;;;;;;5058023;28;20009;-93
2023/07/28 10:38:31;;;;;;;21.10;14.25;;;21.40;99.90;;;;;;5071080;28;20389;-93
2023/07/28 10:41:12;;;;;;;20.30;15.52;;;21.60;99.90;;;;;;5051635;28;20040;-93
2023/07/28 10:43:39;;;;;;;18.35;13.68;;;21.60;99.90;;;;;;5059063;28;20032;-93
2023/07/28 10:46:07;;;;;;;20.30;13.45;;;21.70;99.90;;;;;;5040785;28;20028;-93
2023/07/28 10:48:35;;;;;;;17.17;12.88;;;21.80;99.90;;;;;;5057508;28;20025;-93
2023/07/28 10:51:03;;;;;;;19.42;12.90;;;21.90;99.90;;;;;;5057747;28;20119;-91
2023/07/28 10:53:32;;;;;;;18.52;13.35;;;22.00;99.90;;;;;;5041904;28;20112;-92
2023/07/28 10:55:59;;;;;;;17.20;13.27;;;22.10;99.90;;;;;;5058305;28;20027;-92
2023/07/28 10:58:24;;;;;;;15.25;13.00;;;22.10;99.90;;;;;;5058343;28;20094;-91
2023/07/28 11:00:52;;;;;;;18.92;14.57;;;22.20;99.90;;;;;;5073264;28;20025;-88
2023/07/28 11:03:18;;;;;;;17.23;11.98;;;22.20;99.90;;;;;;5069207;28;20075;-93
2023/07/28 11:05:43;;;;;;;16.52;12.65;;;22.20;99.90;;;;;;5040881;28;20025;-92
2023/07/28 11:08:10;;;;;;;18.85;13.25;;;22.20;99.90;;;;;;5040522;28;20052;-92
2023/07/28 11:10:37;;;;;;;19.17;12.88;;;22.30;99.90;;;;;;5056989;28;20049;-92
2023/07/28 11:13:05;;;;;;;16.70;12.50;;;22.30;99.90;;;;;;5039701;28;20123;-92
2023/07/28 11:15:33;;;;;;;17.42;12.68;;;22.40;99.90;;;;;;5056824;28;20013;-89
2023/07/28 11:17:59;;;;;;;16.52;12.40;;;22.40;99.90;;;;;;5074490;28;20021;-90
2023/07/28 11:20:28;;;;;;;18.15;13.07;;;22.40;99.90;;;;;;5059544;28;20040;-90
2023/07/28 11:22:58;;;;;;;15.15;11.95;;;22.50;99.90;;;;;;5060120;28;20029;-91
2023/07/28 11:25:25;;;;;;;15.05;11.82;;;22.50;99.90;;;;;;5059755;28;20021;-89
2023/07/28 11:27:51;;;;;;;14.25;11.60;;;22.50;99.90;;;;;;5060146;28;20056;-90
2023/07/28 11:30:19;;;;;;;15.57;11.27;;;22.40;99.90;;;;;;5060110;28;20056;-90
2023/07/28 11:32:47;;;;;;;14.40;12.38;;;22.50;99.90;;;;;;5059854;28;20366;-89
2023/07/28 11:35:14;;;;;;;14.82;11.60;;;22.40;99.90;;;;;;5059652;28;20021;-88
2023/07/28 11:37:41;;;;;;;13.63;11.05;;;22.40;99.90;;;;;;5059752;28;20055;-90
2023/07/28 11:40:11;;;;;;;12.23;10.15;;;22.40;99.90;;;;;;5059658;28;20023;-90
2023/07/28 11:42:55;;;;;;;13.50;9.45;;;22.40;99.90;;;;;;5059407;28;20025;-90
2023/07/28 11:45:22;;;;;;;11.75;9.88;;;22.40;99.90;;;;;;5059824;28;20035;-90
2023/07/28 11:48:00;;;;;;;11.30;8.85;;;22.40;99.90;;;;;;5059589;28;20055;-90
2023/07/28 11:50:42;;;;;;;15.60;10.70;;;22.50;99.90;;;;;;5061535;28;20020;-92
2023/07/28 11:53:09;;;;;;;12.65;9.45;;;22.40;99.90;;;;;;5061908;28;20062;-92
2023/07/28 11:55:36;;;;;;;12.80;10.25;;;22.50;99.90;;;;;;5060613;28;20031;-92
2023/07/28 11:58:04;;;;;;;12.77;9.38;;;22.50;99.90;;;;;;5060547;28;20020;-92
2023/07/28 12:00:35;;;;;;;13.32;10.30;;;22.50;99.90;;;;;;5059806;28;20027;-92
2023/07/28 12:03:12;;;;;;;12.48;9.90;;;22.60;99.90;;;;;;5059984;28;20082;-93
2023/07/28 12:05:58;;;;;;;12.35;10.02;;;22.60;99.90;;;;;;5059778;28;20020;-92
2023/07/28 12:08:36;;;;;;;12.40;9.77;;;22.60;99.90;;;;;;5058951;28;20025;-92
2023/07/28 12:11:02;;;;;;;13.52;9.30;;;22.70;99.90;;;;;;5059136;28;20041;-91
2023/07/28 12:13:28;;;;;;;14.23;10.43;;;22.70;99.90;;;;;;5058763;28;20037;-90
2023/07/28 12:15:54;;;;;;;13.75;10.80;;;22.80;99.90;;;;;;5058754;28;20020;-91
2023/07/28 12:18:22;;;;;;;13.95;10.90;;;22.80;99.90;;;;;;5058563;28;20032;-91
2023/07/28 12:20:50;;;;;;;11.25;9.40;;;22.70;99.90;;;;;;5058878;28;20020;-90
2023/07/28 12:23:18;;;;;;;13.35;9.93;;;22.80;99.90;;;;;;5059124;28;20092;-90
2023/07/28 12:25:44;;;;;;;16.42;10.75;;;22.80;99.90;;;;;;5057839;28;20024;-90
2023/07/28 12:28:10;;;;;;;13.30;11.13;;;22.80;99.90;;;;;;5058282;28;20350;-91
2023/07/28 12:30:37;;;;;;;14.23;11.02;;;22.80;99.90;;;;;;5057707;28;20055;-90